createdAt,value
2019-04-04T00:01:21.874Z,16.42
2019-04-04T00:03:51.850Z,19.05
2019-04-04T00:06:21.676Z,17.60
2019-04-04T00:08:51.071Z,17.55
2019-04-04T00:11:20.499Z,16.70
2019-04-04T00:13:50.475Z,16.65
2019-04-04T00:16:19.835Z,15.90
2019-04-04T00:18:50.790Z,16.12
2019-04-04T00:21:20.978Z,16.02
2019-04-04T00:23:50.832Z,15.95
2019-04-04T00:26:20.225Z,17.12
2019-04-04T00:28:50.331Z,16.17
2019-04-04T00:31:20.285Z,17.10
2019-04-04T00:33:51.060Z,16.97
2019-04-04T00:36:20.428Z,15.50
2019-04-04T00:38:49.789Z,16.30
2019-04-04T00:41:19.243Z,17.02
2019-04-04T00:43:49.877Z,17.65
2019-04-04T00:46:19.673Z,16.35
2019-04-04T00:48:49.223Z,17.25
2019-04-04T00:51:18.588Z,16.70
2019-04-04T00:53:48.022Z,16.23
2019-04-04T00:56:18.199Z,17.17
2019-04-04T00:58:48.198Z,17.02
2019-04-04T01:01:17.672Z,17.07
2019-04-04T01:03:47.078Z,16.48
2019-04-04T01:06:16.426Z,16.27
2019-04-04T01:08:45.763Z,18.05
2019-04-04T01:11:15.154Z,17.87
2019-04-04T01:13:46.242Z,19.98
2019-04-04T01:16:16.644Z,19.52
2019-04-04T01:18:46.069Z,17.73
2019-04-04T01:21:16.509Z,18.67
2019-04-04T01:23:58.402Z,16.48
2019-04-04T01:26:28.170Z,17.17
2019-04-04T01:28:57.820Z,17.40
2019-04-04T01:31:27.532Z,17.57
2019-04-04T01:33:57.100Z,17.52
2019-04-04T01:36:26.535Z,16.57
2019-04-04T01:38:56.018Z,17.15
2019-04-04T01:41:25.364Z,16.87
2019-04-04T01:44:04.868Z,17.62
2019-04-04T01:46:27.743Z,17.10
2019-04-04T01:48:59.884Z,17.77
2019-04-04T01:51:29.248Z,17.23
2019-04-04T01:54:00.989Z,17.07
2019-04-04T01:56:31.012Z,17.37
2019-04-04T01:59:00.354Z,17.05
2019-04-04T02:01:29.727Z,17.25
2019-04-04T02:04:02.020Z,17.55
2019-04-04T02:06:31.405Z,17.20
2019-04-04T02:09:02.517Z,15.98
2019-04-04T02:11:33.249Z,17.10
2019-04-04T02:14:02.673Z,17.65
2019-04-04T02:16:32.066Z,17.80
2019-04-04T02:19:01.412Z,17.32
2019-04-04T02:21:30.761Z,17.85
2019-04-04T02:24:01.649Z,17.87
2019-04-04T02:26:31.167Z,18.20
2019-04-04T02:29:00.495Z,19.02
2019-04-04T02:31:31.507Z,17.80
2019-04-04T02:34:05.341Z,18.50
2019-04-04T02:36:32.981Z,19.02
2019-04-04T02:39:11.094Z,17.55
2019-04-04T02:41:40.518Z,18.60
2019-04-04T02:44:11.100Z,18.25
2019-04-04T02:46:44.095Z,18.07
2019-04-04T02:49:11.491Z,18.12
2019-04-04T02:51:41.470Z,17.67
2019-04-04T02:54:11.193Z,18.00
2019-04-04T02:56:46.183Z,18.05
2019-04-04T02:59:20.238Z,18.32
2019-04-04T03:01:46.728Z,18.65
2019-04-04T03:04:16.300Z,19.55
2019-04-04T03:06:45.703Z,19.87
2019-04-04T03:09:15.082Z,18.70
2019-04-04T03:11:45.987Z,18.92
2019-04-04T03:14:15.377Z,18.98
2019-04-04T03:16:44.745Z,18.27
2019-04-04T03:19:14.206Z,18.92
2019-04-04T03:21:54.926Z,19.15
2019-04-04T03:24:22.584Z,18.90
2019-04-04T03:26:52.617Z,18.30
2019-04-04T03:29:23.092Z,17.65
2019-04-04T03:31:52.441Z,18.62
2019-04-04T03:34:21.828Z,18.27
2019-04-04T03:36:52.468Z,20.32
2019-04-04T03:39:23.302Z,17.98
2019-04-04T03:41:55.639Z,19.60
2019-04-04T03:44:26.123Z,18.48
2019-04-04T03:46:58.097Z,19.50
2019-04-04T03:49:27.457Z,19.27
2019-04-04T03:51:56.800Z,18.37
2019-04-04T03:54:26.740Z,19.40
2019-04-04T03:56:56.111Z,18.48
2019-04-04T03:59:25.480Z,18.17
2019-04-04T04:01:54.804Z,17.80
2019-04-04T04:04:27.106Z,19.95
2019-04-04T04:06:55.200Z,19.37
2019-04-04T04:09:26.481Z,19.02
2019-04-04T04:11:55.678Z,19.17
2019-04-04T04:14:25.117Z,19.25
2019-04-04T04:16:54.501Z,19.02
2019-04-04T04:19:24.622Z,18.87
2019-04-04T04:21:54.905Z,19.05
2019-04-04T04:24:26.797Z,18.92
2019-04-04T04:26:55.422Z,18.85
2019-04-04T04:29:24.781Z,17.87
2019-04-04T04:31:54.185Z,19.10
2019-04-04T04:34:23.521Z,18.80
2019-04-04T04:36:52.863Z,17.60
2019-04-04T04:39:22.196Z,17.75
2019-04-04T04:41:54.279Z,18.95
2019-04-04T04:44:22.608Z,18.50
2019-04-04T04:46:52.035Z,19.90
2019-04-04T04:49:23.292Z,18.55
2019-04-04T04:51:52.468Z,19.35
2019-04-04T04:54:22.823Z,18.57
2019-04-04T04:56:53.038Z,18.40
2019-04-04T04:59:22.384Z,18.17
2019-04-04T05:01:51.742Z,18.85
2019-04-04T05:04:21.124Z,18.20
2019-04-04T05:06:50.533Z,18.87
2019-04-04T05:09:19.965Z,18.92
2019-04-04T05:11:50.232Z,17.87
2019-04-04T05:14:23.023Z,18.32
2019-04-04T05:16:52.391Z,18.98
2019-04-04T05:19:21.719Z,18.05
2019-04-04T05:21:51.064Z,18.95
2019-04-04T05:24:20.532Z,18.52
2019-04-04T05:26:49.932Z,19.10
2019-04-04T05:29:19.342Z,18.48
2019-04-04T05:31:50.131Z,18.48
2019-04-04T05:34:19.832Z,19.07
2019-04-04T05:36:49.184Z,18.40
2019-04-04T05:39:18.789Z,19.42
2019-04-04T05:41:48.402Z,19.98
2019-04-04T05:44:17.839Z,18.62
2019-04-04T05:46:47.175Z,18.92
2019-04-04T05:49:16.506Z,19.27
2019-04-04T05:51:46.293Z,19.23
2019-04-04T05:54:19.746Z,19.67
2019-04-04T05:56:49.717Z,19.92
2019-04-04T05:59:19.164Z,18.40
2019-04-04T06:01:48.471Z,18.75
2019-04-04T06:04:19.569Z,21.23
2019-04-04T06:06:48.863Z,20.90
2019-04-04T06:09:18.313Z,19.27
2019-04-04T06:11:52.917Z,19.25
2019-04-04T06:14:22.162Z,19.05
2019-04-04T06:16:51.581Z,18.40
2019-04-04T06:19:20.927Z,18.48
2019-04-04T06:21:50.553Z,18.50
2019-04-04T06:24:20.264Z,17.77
2019-04-04T06:26:49.732Z,20.17
2019-04-04T06:29:19.100Z,18.80
2019-04-04T06:31:48.488Z,18.73
2019-04-04T06:34:17.853Z,18.07
2019-04-04T06:37:04.655Z,18.30
2019-04-04T06:39:49.464Z,18.57
2019-04-04T06:42:24.451Z,18.95
2019-04-04T06:44:54.550Z,17.82
2019-04-04T06:47:25.639Z,18.35
2019-04-04T06:49:55.080Z,17.57
2019-04-04T06:52:24.476Z,17.00
2019-04-04T06:54:57.080Z,18.98
2019-04-04T06:57:25.751Z,17.90
2019-04-04T06:59:55.159Z,17.52
2019-04-04T07:02:24.657Z,16.30
2019-04-04T07:04:54.126Z,16.35
2019-04-04T07:07:23.588Z,16.48
2019-04-04T07:09:53.022Z,16.10
2019-04-04T07:12:28.146Z,16.45
2019-04-04T07:14:53.538Z,17.67
2019-04-04T07:17:22.895Z,16.70
2019-04-04T07:19:52.369Z,16.32
2019-04-04T07:22:24.812Z,15.40
2019-04-04T07:24:54.302Z,15.10
2019-04-04T07:27:23.733Z,16.05
2019-04-04T07:29:56.482Z,15.90
2019-04-04T07:32:24.177Z,14.70
2019-04-04T07:34:53.526Z,15.48
2019-04-04T07:37:28.544Z,16.65
2019-04-04T07:39:57.877Z,14.87
2019-04-04T07:42:28.271Z,15.13
2019-04-04T07:44:57.616Z,15.35
2019-04-04T07:47:26.959Z,15.25
2019-04-04T07:49:56.377Z,15.20
2019-04-04T07:52:25.801Z,14.35
2019-04-04T07:54:55.158Z,15.58
2019-04-04T07:57:24.517Z,15.72
2019-04-04T07:59:53.871Z,14.70
2019-04-04T08:02:23.331Z,15.55
2019-04-04T08:04:52.727Z,14.73
2019-04-04T08:07:22.102Z,14.83
2019-04-04T08:09:51.501Z,15.95
2019-04-04T08:12:20.862Z,14.73
2019-04-04T08:14:50.226Z,14.23
2019-04-04T08:17:19.720Z,13.58
2019-04-04T08:19:59.140Z,15.00
2019-04-04T08:22:21.406Z,14.60
2019-04-04T08:24:51.053Z,14.75
2019-04-04T08:27:20.408Z,14.18
2019-04-04T08:29:49.755Z,14.05
2019-04-04T08:32:19.120Z,14.23
2019-04-04T08:34:50.054Z,13.60
2019-04-04T08:37:19.463Z,13.45
2019-04-04T08:39:48.813Z,14.30
2019-04-04T08:42:18.157Z,15.08
2019-04-04T08:44:47.595Z,14.75
2019-04-04T08:47:16.950Z,15.10
2019-04-04T08:49:46.435Z,14.38
2019-04-04T08:52:16.836Z,14.10
2019-04-04T08:54:46.838Z,13.93
2019-04-04T08:57:16.218Z,13.62
2019-04-04T08:59:45.621Z,14.25
2019-04-04T09:02:17.033Z,13.25
2019-04-04T09:04:46.370Z,13.15
2019-04-04T09:07:15.875Z,12.30
2019-04-04T09:09:45.395Z,12.75
2019-04-04T09:12:14.803Z,12.28
2019-04-04T09:14:48.732Z,12.37
2019-04-04T09:17:18.112Z,13.08
2019-04-04T09:19:48.169Z,11.93
2019-04-04T09:22:17.539Z,12.20
2019-04-04T09:24:46.927Z,12.55
2019-04-04T09:27:16.316Z,12.00
2019-04-04T09:29:45.670Z,11.85
2019-04-04T09:32:15.026Z,11.68
2019-04-04T09:34:44.381Z,11.75
2019-04-04T09:37:13.804Z,11.05
2019-04-04T09:39:43.223Z,10.90
2019-04-04T09:42:12.566Z,10.72
2019-04-04T09:44:42.131Z,11.30
2019-04-04T09:47:11.632Z,10.58
2019-04-04T09:49:41.023Z,11.03
2019-04-04T09:52:11.973Z,11.03
2019-04-04T09:54:41.363Z,10.60
2019-04-04T09:57:11.825Z,10.70
2019-04-04T09:59:41.253Z,10.58
2019-04-04T10:02:10.705Z,11.05
2019-04-04T10:04:41.663Z,11.33
2019-04-04T10:07:12.282Z,10.28
2019-04-04T10:09:41.624Z,10.58
2019-04-04T10:12:10.977Z,10.78
2019-04-04T10:14:40.330Z,10.80
2019-04-04T10:17:10.720Z,9.85
2019-04-04T10:19:40.138Z,10.55
2019-04-04T10:22:09.479Z,12.15
2019-04-04T10:24:38.806Z,10.08
2019-04-04T10:27:08.187Z,10.08
2019-04-04T10:29:37.574Z,9.30
2019-04-04T10:32:19.405Z,9.30
2019-04-04T10:34:48.917Z,9.55
2019-04-04T10:37:18.277Z,12.28
2019-04-04T10:39:48.019Z,10.08
2019-04-04T10:42:17.446Z,9.65
2019-04-04T10:44:46.818Z,9.50
2019-04-04T10:47:16.230Z,10.28
2019-04-04T10:49:45.578Z,9.68
2019-04-04T10:52:15.000Z,9.53
2019-04-04T10:54:44.443Z,10.40
2019-04-04T10:57:13.830Z,9.13
2019-04-04T10:59:43.960Z,8.80
2019-04-04T11:02:13.390Z,9.05
2019-04-04T11:04:42.755Z,9.58
2019-04-04T11:07:12.291Z,8.88
2019-04-04T11:09:42.478Z,9.75
2019-04-04T11:12:13.245Z,9.25
2019-04-04T11:14:42.634Z,9.80
2019-04-04T11:17:11.992Z,9.30
2019-04-04T11:19:43.904Z,10.45
2019-04-04T11:22:13.291Z,9.50
2019-04-04T11:24:42.688Z,13.62
2019-04-04T11:27:12.054Z,8.53
2019-04-04T11:29:41.412Z,8.88
2019-04-04T11:32:10.781Z,8.90
2019-04-04T11:34:52.363Z,8.65
2019-04-04T11:37:11.255Z,8.83
2019-04-04T11:39:40.895Z,8.60
2019-04-04T11:42:10.347Z,9.35
2019-04-04T11:44:39.688Z,8.53
2019-04-04T11:47:09.041Z,8.15
2019-04-04T11:49:38.443Z,7.90
2019-04-04T11:52:07.867Z,8.25
2019-04-04T11:54:38.847Z,7.83
2019-04-04T11:57:08.192Z,8.48
2019-04-04T11:59:39.110Z,7.47
2019-04-04T12:02:08.523Z,8.55
2019-04-04T12:04:57.662Z,8.13
2019-04-04T12:07:27.373Z,8.08
2019-04-04T12:10:06.733Z,7.33
2019-04-04T12:12:27.777Z,8.78
2019-04-04T12:14:58.832Z,7.53
2019-04-04T12:17:29.028Z,7.50
2019-04-04T12:19:58.372Z,7.78
2019-04-04T12:22:27.707Z,6.87
2019-04-04T12:24:57.118Z,6.78
2019-04-04T12:27:26.714Z,6.97
2019-04-04T12:29:56.075Z,7.45
2019-04-04T12:32:25.440Z,7.12
2019-04-04T12:34:55.542Z,7.22
2019-04-04T12:37:24.990Z,7.03
2019-04-04T12:39:54.528Z,7.47
2019-04-04T12:42:25.020Z,6.65
2019-04-04T12:44:54.492Z,7.28
2019-04-04T12:47:23.838Z,6.87
2019-04-04T12:49:53.291Z,7.65
2019-04-04T12:52:23.794Z,7.28
2019-04-04T12:54:53.153Z,7.00
2019-04-04T12:57:22.531Z,8.10
2019-04-04T12:59:52.164Z,7.90
2019-04-04T13:02:22.702Z,7.67
2019-04-04T13:04:52.072Z,7.47
2019-04-04T13:07:21.432Z,7.65
2019-04-04T13:09:50.800Z,7.45
2019-04-04T13:12:20.289Z,7.67
2019-04-04T13:14:49.729Z,8.33
2019-04-04T13:17:19.078Z,7.70
2019-04-04T13:19:49.411Z,7.40
2019-04-04T13:22:19.723Z,8.10
2019-04-04T13:24:50.053Z,7.70
2019-04-04T13:27:19.497Z,8.10
2019-04-04T13:29:48.862Z,7.50
2019-04-04T13:32:18.202Z,8.28
2019-04-04T13:34:58.639Z,7.67
2019-04-04T13:37:20.207Z,8.20
2019-04-04T13:39:49.553Z,8.18
2019-04-04T13:42:18.972Z,7.65
2019-04-04T13:44:50.677Z,8.73
2019-04-04T13:47:18.948Z,10.53
2019-04-04T13:49:48.346Z,7.83
2019-04-04T13:52:17.781Z,7.92
2019-04-04T13:54:48.488Z,7.50
2019-04-04T13:57:17.885Z,7.37
2019-04-04T13:59:47.235Z,7.53
2019-04-04T14:02:16.570Z,8.28
2019-04-04T14:04:45.943Z,8.63
2019-04-04T14:07:15.313Z,7.53
2019-04-04T14:09:45.339Z,7.30
2019-04-04T14:12:14.842Z,7.70
2019-04-04T14:14:45.764Z,7.05
2019-04-04T14:17:16.747Z,7.47
2019-04-04T14:19:46.121Z,8.58
2019-04-04T14:22:15.517Z,7.70
2019-04-04T14:24:44.915Z,7.05
2019-04-04T14:27:15.112Z,7.15
2019-04-04T14:29:44.467Z,7.37
2019-04-04T14:32:13.804Z,6.95
2019-04-04T14:34:43.139Z,6.97
2019-04-04T14:37:12.456Z,6.97
2019-04-04T14:39:41.806Z,7.03
2019-04-04T14:42:11.159Z,7.37
2019-04-04T14:44:40.568Z,6.42
2019-04-04T14:47:09.974Z,6.92
2019-04-04T14:49:39.319Z,6.55
2019-04-04T14:52:08.634Z,6.95
2019-04-04T14:54:39.432Z,6.22
2019-04-04T14:57:09.325Z,5.97
2019-04-04T14:59:38.743Z,6.90
2019-04-04T15:02:08.077Z,6.28
2019-04-04T15:04:37.455Z,6.78
2019-04-04T15:07:07.870Z,7.20
2019-04-04T15:09:37.267Z,8.13
2019-04-04T15:12:06.738Z,6.60
2019-04-04T15:14:36.060Z,6.28
2019-04-04T15:17:05.415Z,6.42
2019-04-04T15:19:36.094Z,6.08
2019-04-04T15:22:05.433Z,6.10
2019-04-04T15:24:34.799Z,6.53
2019-04-04T15:27:04.137Z,6.22
2019-04-04T15:29:34.028Z,6.05
2019-04-04T15:32:03.386Z,6.05
2019-04-04T15:34:32.793Z,6.78
2019-04-04T15:37:02.124Z,6.17
2019-04-04T15:39:31.511Z,6.10
2019-04-04T15:42:01.021Z,6.15
2019-04-04T15:44:35.119Z,6.47
2019-04-04T15:47:09.630Z,6.50
2019-04-04T15:49:39.048Z,6.58
2019-04-04T15:52:08.815Z,6.75
2019-04-04T15:54:38.333Z,6.15
2019-04-04T15:57:07.657Z,6.58
2019-04-04T15:59:37.089Z,6.22
2019-04-04T16:02:06.640Z,6.37
2019-04-04T16:04:36.071Z,6.62
2019-04-04T16:07:06.380Z,6.15
2019-04-04T16:09:35.785Z,6.45
2019-04-04T16:12:05.352Z,7.08
2019-04-04T16:14:34.789Z,6.03
2019-04-04T16:17:04.295Z,6.37
2019-04-04T16:19:33.822Z,6.67
2019-04-04T16:22:03.191Z,6.55
2019-04-04T16:24:32.586Z,6.30
2019-04-04T16:27:02.077Z,6.28
2019-04-04T16:29:31.516Z,5.72
2019-04-04T16:32:01.146Z,5.75
2019-04-04T16:34:30.675Z,6.17
2019-04-04T16:37:02.697Z,6.35
2019-04-04T16:39:35.427Z,6.22
2019-04-04T16:42:04.984Z,5.70
2019-04-04T16:44:34.449Z,5.87
2019-04-04T16:47:03.924Z,6.28
2019-04-04T16:49:34.616Z,6.05
2019-04-04T16:52:07.061Z,6.28
2019-04-04T16:54:53.978Z,5.95
2019-04-04T16:57:23.298Z,6.20
2019-04-04T16:59:52.630Z,6.00
2019-04-04T17:02:22.066Z,6.03
2019-04-04T17:04:51.509Z,6.62
2019-04-04T17:07:23.304Z,6.62
2019-04-04T17:09:52.851Z,6.28
2019-04-04T17:12:22.288Z,6.87
2019-04-04T17:14:51.816Z,7.35
2019-04-04T17:17:21.270Z,7.65
2019-04-04T17:19:50.916Z,8.85
2019-04-04T17:22:20.458Z,6.78
2019-04-04T17:24:51.160Z,7.33
2019-04-04T17:27:20.669Z,6.97
2019-04-04T17:29:50.215Z,7.12
2019-04-04T17:32:21.401Z,6.70
2019-04-04T17:34:53.622Z,8.10
2019-04-04T17:37:23.926Z,7.47
2019-04-04T17:39:54.756Z,7.90
2019-04-04T17:42:30.317Z,7.78
2019-04-04T17:44:57.024Z,7.40
2019-04-04T17:47:26.546Z,9.53
2019-04-04T17:49:56.058Z,8.75
2019-04-04T17:52:25.492Z,8.00
2019-04-04T17:54:54.910Z,8.98
2019-04-04T17:57:25.864Z,8.45
2019-04-04T17:59:55.196Z,9.13
2019-04-04T18:02:24.632Z,14.30
2019-04-04T18:04:54.069Z,9.83
2019-04-04T18:07:23.419Z,11.65
2019-04-04T18:09:53.988Z,9.28
2019-04-04T18:12:23.367Z,8.90
2019-04-04T18:14:53.338Z,9.00
2019-04-04T18:17:22.821Z,9.80
2019-04-04T18:19:52.287Z,10.10
2019-04-04T18:22:21.720Z,10.25
2019-04-04T18:24:51.163Z,10.40
2019-04-04T18:27:20.667Z,10.10
2019-04-04T18:29:50.114Z,9.80
2019-04-04T18:32:19.477Z,9.85
2019-04-04T18:34:52.220Z,9.90
2019-04-04T18:37:21.810Z,9.78
2019-04-04T18:39:52.360Z,10.05
2019-04-04T18:42:21.763Z,9.78
2019-04-04T18:44:51.139Z,9.58
2019-04-04T18:47:20.527Z,9.25
2019-04-04T18:49:51.600Z,9.60
2019-04-04T18:52:22.040Z,9.60
2019-04-04T18:54:51.465Z,11.53
2019-04-04T18:57:20.821Z,10.63
2019-04-04T18:59:51.605Z,11.15
2019-04-04T19:02:21.006Z,11.88
2019-04-04T19:04:50.367Z,12.05
2019-04-04T19:07:19.796Z,12.47
2019-04-04T19:09:49.318Z,9.20
2019-04-04T19:12:18.671Z,10.13
2019-04-04T19:14:48.810Z,10.45
2019-04-04T19:17:18.242Z,12.33
2019-04-04T19:19:47.690Z,12.90
2019-04-04T19:22:18.312Z,12.95
2019-04-04T19:24:48.035Z,13.90
2019-04-04T19:27:17.952Z,13.70
2019-04-04T19:29:47.401Z,12.63
2019-04-04T19:32:16.814Z,12.40
2019-04-04T19:34:47.109Z,11.83
2019-04-04T19:37:16.564Z,11.12
2019-04-04T19:39:46.518Z,10.03
2019-04-04T19:42:24.974Z,9.88
2019-04-04T19:44:58.267Z,11.97
2019-04-04T19:47:27.731Z,10.00
2019-04-04T19:49:59.754Z,9.73
2019-04-04T19:52:29.247Z,10.40
2019-04-04T19:54:58.701Z,9.95
2019-04-04T19:57:29.369Z,9.08
2019-04-04T19:59:58.796Z,9.93
2019-04-04T20:02:28.247Z,10.50
2019-04-04T20:04:57.703Z,9.05
2019-04-04T20:07:27.703Z,8.93
2019-04-04T20:10:00.473Z,9.65
2019-04-04T20:12:30.171Z,10.90
2019-04-04T20:15:00.799Z,9.10
2019-04-04T20:17:31.508Z,11.33
2019-04-04T20:20:00.883Z,10.05
2019-04-04T20:22:30.350Z,9.23
2019-04-04T20:24:59.970Z,10.93
2019-04-04T20:27:29.398Z,10.93
2019-04-04T20:29:58.833Z,8.98
2019-04-04T20:32:28.187Z,10.38
2019-04-04T20:34:57.573Z,10.00
2019-04-04T20:37:27.122Z,10.45
2019-04-04T20:39:56.538Z,10.15
2019-04-04T20:42:30.905Z,9.78
2019-04-04T20:45:28.695Z,12.18
2019-04-04T20:48:21.947Z,9.53
2019-04-04T20:50:51.311Z,10.28
2019-04-04T20:53:22.160Z,10.68
2019-04-04T20:55:51.805Z,10.68
2019-04-04T20:58:21.207Z,10.75
2019-04-04T21:00:50.656Z,10.20
2019-04-04T21:03:20.188Z,10.58
2019-04-04T21:05:49.569Z,10.30
2019-04-04T21:08:19.004Z,9.90
2019-04-04T21:10:48.373Z,10.32
2019-04-04T21:13:17.714Z,11.28
2019-04-04T21:15:47.139Z,10.18
2019-04-04T21:18:16.500Z,10.10
2019-04-04T21:20:45.969Z,10.53
2019-04-04T21:23:17.317Z,11.15
2019-04-04T21:25:56.091Z,11.43
2019-04-04T21:28:25.598Z,11.12
2019-04-04T21:30:56.703Z,11.18
2019-04-04T21:33:30.957Z,11.10
2019-04-04T21:36:05.326Z,11.20
2019-04-04T21:38:34.801Z,11.55
2019-04-04T21:41:06.725Z,10.82
2019-04-04T21:43:38.622Z,11.48
2019-04-04T21:46:07.997Z,10.75
2019-04-04T21:48:37.476Z,10.58
2019-04-04T21:51:09.293Z,12.50
2019-04-04T21:53:38.763Z,11.63
2019-04-04T21:56:08.636Z,13.03
2019-04-04T21:58:39.706Z,12.23
2019-04-04T22:01:11.816Z,12.05
2019-04-04T22:03:42.749Z,11.57
2019-04-04T22:06:12.240Z,12.18
2019-04-04T22:08:55.588Z,12.33
2019-04-04T22:11:35.506Z,12.07
2019-04-04T22:14:21.109Z,11.95
2019-04-04T22:16:43.770Z,11.68
2019-04-04T22:19:29.338Z,11.97
2019-04-04T22:21:58.888Z,12.67
2019-04-04T22:24:29.592Z,12.55
2019-04-04T22:26:59.063Z,11.97
2019-04-04T22:29:30.339Z,11.97
2019-04-04T22:32:09.177Z,12.40
2019-04-04T22:34:44.502Z,11.63
2019-04-04T22:37:14.095Z,11.90
2019-04-04T22:39:45.250Z,11.85
2019-04-04T22:42:15.322Z,12.13
2019-04-04T22:44:46.482Z,12.15
2019-04-04T22:47:17.365Z,13.38
2019-04-04T22:49:47.100Z,12.05
2019-04-04T22:52:17.979Z,11.65
2019-04-04T22:54:51.661Z,11.25
2019-04-04T22:57:21.727Z,12.30
2019-04-04T22:59:52.776Z,11.80
2019-04-04T23:02:22.874Z,12.55
2019-04-04T23:04:56.552Z,11.77
2019-04-04T23:07:30.855Z,12.05
2019-04-04T23:10:00.298Z,12.28
2019-04-04T23:12:29.701Z,11.90
2019-04-04T23:14:59.616Z,12.13
2019-04-04T23:17:29.060Z,11.93
2019-04-04T23:19:58.523Z,11.95
2019-04-04T23:22:27.968Z,11.65
2019-04-04T23:24:57.677Z,12.55
2019-04-04T23:27:27.368Z,12.45
2019-04-04T23:29:56.816Z,12.40
2019-04-04T23:32:26.239Z,12.45
2019-04-04T23:34:55.630Z,12.50
2019-04-04T23:37:25.651Z,13.20
2019-04-04T23:39:55.219Z,13.15
2019-04-04T23:42:24.607Z,13.00
2019-04-04T23:45:00.776Z,12.95
2019-04-04T23:47:26.481Z,12.15
2019-04-04T23:49:55.889Z,12.45
2019-04-04T23:52:25.634Z,12.82
2019-04-04T23:54:54.992Z,13.30
2019-04-04T23:57:24.336Z,12.45
2019-04-04T23:59:53.721Z,12.63
